Time;durP1;ratioP1;P1;durP2;ratioP2;P2;SDS_P1;SDS_P2;PMS_P1;PMS_P2;Temp;Humidity;BMP_temperature;BMP_pressure;BME280_temperature;BME280_humidity;BME280_pressure;Samples;Min_cycle;Max_cycle;Signal;HPM_P1;HPM_P2
2023/01/26 00:05:27;;;;;;;2.22;1.35;;;;;;;5.54;65.15;101333.16;18306169;32;20120;-58
2023/01/26 00:15:33;;;;;;;0.82;0.82;;;;;;;5.52;65.00;101320.16;18305113;32;20432;-58
2023/01/26 00:25:38;;;;;;;1.83;1.73;;;;;;;5.52;65.17;101320.16;18304582;32;20089;-58
2023/01/26 00:35:43;;;;;;;3.12;2.92;;;;;;;5.66;64.80;101312.84;18303855;32;20132;-58
2023/01/26 00:45:47;;;;;;;1.15;1.05;;;;;;;5.53;65.09;101295.16;18303864;32;20101;-58
2023/01/26 00:55:54;;;;;;;0.68;0.68;;;;;;;4.92;67.56;101298.28;18303469;32;20094;-59
2023/01/26 01:05:57;;;;;;;2.28;2.15;;;;;;;5.32;65.83;101295.31;18302938;32;20125;-59
2023/01/26 01:16:05;;;;;;;1.45;1.35;;;;;;;5.38;65.54;101286.03;18303916;32;20089;-58
2023/01/26 01:26:09;;;;;;;0.80;0.80;;;;;;;5.35;66.02;101278.16;18302093;32;20085;-58
2023/01/26 01:36:15;;;;;;;1.65;1.55;;;;;;;5.17;66.82;101269.78;18302720;32;20089;-58
2023/01/26 01:46:26;;;;;;;1.73;1.62;;;;;;;4.56;69.28;101270.25;18305103;32;20139;-58
2023/01/26 01:56:32;;;;;;;2.22;2.08;;;;;;;5.04;67.77;101260.72;18308925;32;20137;-59
2023/01/26 02:06:39;;;;;;;1.87;1.77;;;;;;;5.47;66.26;101257.00;18308582;32;20568;-58
2023/01/26 02:16:44;;;;;;;2.12;1.80;;;;;;;5.58;65.89;101241.78;18308419;32;20108;-58
2023/01/26 02:26:48;;;;;;;0.77;0.77;;;;;;;5.52;65.63;101231.25;18308010;32;20097;-58
2023/01/26 02:37:01;;;;;;;0.95;0.95;;;;;;;5.53;65.40;101209.69;18307607;32;20359;-58
2023/01/26 02:47:12;;;;;;;1.90;1.80;;;;;;;5.43;65.44;101195.53;18308358;32;20093;-58
2023/01/26 02:57:15;;;;;;;1.20;1.12;;;;;;;5.32;65.84;101182.28;18305558;32;20711;-58
2023/01/26 03:07:20;;;;;;;0.70;0.70;;;;;;;5.44;65.83;101181.75;18302941;32;20148;-58
2023/01/26 03:17:25;;;;;;;0.60;0.60;;;;;;;5.37;65.90;101170.34;18303150;32;20139;-58
2023/01/26 03:27:41;;;;;;;0.85;0.85;;;;;;;5.41;65.94;101156.69;18302572;32;20155;-58
2023/01/26 03:37:53;;;;;;;4.93;2.70;;;;;;;5.43;66.06;101150.66;18302947;32;20097;-58
2023/01/26 03:58:29;;;;;;;1.00;1.00;;;;;;;5.40;65.96;101123.81;18300317;32;159597;-58
2023/01/26 04:08:33;;;;;;;4.35;4.00;;;;;;;5.34;66.01;101122.75;18304371;32;20382;-58
2023/01/26 04:28:58;;;;;;;1.15;1.15;;;;;;;5.39;66.10;101113.44;18304796;32;20112;-59
2023/01/26 04:39:01;;;;;;;0.98;0.98;;;;;;;5.36;66.34;101100.38;18304685;32;20455;-58
2023/01/26 04:49:07;;;;;;;1.62;1.52;;;;;;;5.33;66.21;101097.69;18303996;32;20112;-58
2023/01/26 04:59:13;;;;;;;1.37;1.25;;;;;;;5.48;65.63;101086.94;18303386;32;20114;-59
2023/01/26 05:09:18;;;;;;;1.33;1.23;;;;;;;5.31;65.72;101092.50;18343570;32;20089;-59
2023/01/26 05:19:21;;;;;;;0.93;0.93;;;;;;;5.21;65.95;101090.44;18309376;32;20394;-58
2023/01/26 05:29:26;;;;;;;0.73;0.73;;;;;;;5.25;65.77;101097.47;18362366;32;20141;-59
2023/01/26 05:39:29;;;;;;;2.95;2.12;;;;;;;5.14;66.14;101095.44;18341231;32;20118;-58
2023/01/26 05:49:33;;;;;;;0.98;0.98;;;;;;;5.21;65.86;101093.00;18301374;32;20461;-59
2023/01/26 05:59:36;;;;;;;2.78;2.55;;;;;;;5.14;65.98;101098.03;18299992;32;20094;-60
2023/01/26 06:09:41;;;;;;;0.50;0.50;;;;;;;5.12;66.14;101091.94;18300646;32;20120;-60
2023/01/26 06:19:44;;;;;;;1.12;1.12;;;;;;;5.18;65.61;101104.19;18299158;32;20116;-60
2023/01/26 06:29:49;;;;;;;2.20;1.40;;;;;;;5.16;65.59;101098.06;18300422;32;20093;-60
2023/01/26 06:39:52;;;;;;;0.80;0.80;;;;;;;5.14;65.62;101085.09;18346684;32;20117;-60
2023/01/26 06:49:57;;;;;;;1.05;1.05;;;;;;;5.05;66.03;101089.97;18371046;32;20097;-60
2023/01/26 07:00:00;;;;;;;0.95;0.95;;;;;;;5.05;65.82;101079.62;18371519;32;20100;-60
2023/01/26 07:10:06;;;;;;;0.60;0.60;;;;;;;5.05;65.95;101079.62;18370397;32;20101;-60
2023/01/26 07:20:11;;;;;;;0.75;0.75;;;;;;;5.01;66.00;101080.34;18370148;32;20081;-60
2023/01/26 07:30:17;;;;;;;0.50;0.50;;;;;;;5.04;66.44;101076.97;18368941;32;20159;-60
2023/01/26 07:40:21;;;;;;;0.52;0.52;;;;;;;5.22;66.04;101072.38;18368976;32;20369;-60
2023/01/26 07:50:26;;;;;;;2.78;2.00;;;;;;;5.24;65.77;101070.69;18352427;32;20106;-61
2023/01/26 08:00:29;;;;;;;1.52;1.42;;;;;;;5.22;65.93;101066.31;18300755;32;20466;-60
2023/01/26 08:10:34;;;;;;;3.55;3.25;;;;;;;5.27;65.98;101064.75;18295868;32;20112;-58
2023/01/26 08:20:38;;;;;;;2.50;1.92;;;;;;;5.38;66.16;101062.50;18303970;32;20113;-58
2023/01/26 08:30:42;;;;;;;2.92;2.75;;;;;;;5.45;65.95;101053.19;18304437;32;20437;-58
2023/01/26 08:40:52;;;;;;;0.93;0.90;;;;;;;5.65;65.58;101059.81;18304154;32;20094;-60
2023/01/26 08:50:59;;;;;;;2.95;2.78;;;;;;;5.73;65.00;101051.38;18303465;32;20113;-60
2023/01/26 09:01:04;;;;;;;3.78;2.08;;;;;;;5.78;63.75;101060.16;18303202;32;20089;-60
2023/01/26 09:11:09;;;;;;;1.95;1.30;;;;;;;5.88;63.72;101064.78;18303170;32;20461;-60
2023/01/26 09:21:13;;;;;;;1.05;1.05;;;;;;;6.06;63.07;101060.94;18303574;32;20112;-60
2023/01/26 09:31:17;;;;;;;1.05;1.05;;;;;;;6.09;62.60;101053.28;18302304;32;20097;-60
2023/01/26 09:41:34;;;;;;;0.62;0.62;;;;;;;5.87;59.50;101056.97;18301654;32;20096;-59
2023/01/26 09:51:41;;;;;;;4.65;2.90;;;;;;;5.62;56.19;101057.16;18300246;32;20094;-60
2023/01/26 10:01:51;;;;;;;1.70;1.60;;;;;;;6.05;57.91;101033.28;18323322;32;20125;-59
2023/01/26 10:11:58;;;;;;;1.08;1.08;;;;;;;6.10;55.93;101018.72;18338645;32;20419;-60
2023/01/26 10:22:06;;;;;;;0.70;0.70;;;;;;;6.10;55.71;101004.03;18307974;32;20082;-60
2023/01/26 10:32:13;;;;;;;0.90;0.90;;;;;;;5.20;56.00;101000.66;18308300;32;20089;-60
2023/01/26 10:42:19;;;;;;;1.67;1.58;;;;;;;5.79;55.72;100976.44;18307697;32;20159;-60
2023/01/26 10:52:24;;;;;;;0.60;0.60;;;;;;;5.33;55.16;100966.56;18316229;32;20133;-60
2023/01/26 11:02:28;;;;;;;0.60;0.60;;;;;;;5.70;54.65;100951.13;18358907;32;20093;-60
2023/01/26 11:12:33;;;;;;;2.62;2.42;;;;;;;5.91;52.68;100945.66;18333393;32;20132;-60
2023/01/26 11:22:43;;;;;;;0.62;0.62;;;;;;;5.96;53.55;100935.41;18334466;32;20110;-60
2023/01/26 11:32:54;;;;;;;0.70;0.70;;;;;;;5.35;52.96;100918.28;18305666;32;20427;-60
2023/01/26 11:43:16;;;;;;;1.30;1.20;;;;;;;6.20;52.57;100905.75;18306174;32;20405;-60
2023/01/26 11:53:32;;;;;;;0.55;0.55;;;;;;;6.10;50.30;100902.94;18305690;32;20120;-60
2023/01/26 12:03:41;;;;;;;0.55;0.55;;;;;;;6.27;50.95;100879.12;18306846;32;20152;-60
2023/01/26 12:13:47;;;;;;;0.70;0.70;;;;;;;6.10;50.25;100858.88;18305139;32;20101;-60
2023/01/26 12:23:58;;;;;;;3.40;1.87;;;;;;;6.34;50.22;100849.03;18304430;32;20117;-60
2023/01/26 12:34:02;;;;;;;0.87;0.87;;;;;;;6.18;49.97;100830.56;18303727;32;20098;-60
2023/01/26 12:44:15;;;;;;;0.60;0.60;;;;;;;5.77;49.88;100828.72;18304087;32;20148;-60
2023/01/26 12:54:23;;;;;;;0.90;0.90;;;;;;;5.12;52.00;100817.59;18303858;32;20116;-59
2023/01/26 13:04:27;;;;;;;0.60;0.60;;;;;;;4.13;53.84;100827.66;18303717;32;20116;-60
2023/01/26 13:14:37;;;;;;;1.08;1.05;;;;;;;5.11;52.90;100818.38;18330128;32;20089;-60
2023/01/26 13:24:45;;;;;;;0.82;0.82;;;;;;;4.39;53.61;100817.25;18337923;32;20441;-60
2023/01/26 13:34:53;;;;;;;0.65;0.65;;;;;;;4.40;52.97;100813.81;18301102;32;20089;-60
2023/01/26 13:44:58;;;;;;;0.70;0.70;;;;;;;4.18;55.29;100822.63;18308171;32;20086;-60
2023/01/26 13:55:04;;;;;;;0.60;0.60;;;;;;;4.73;54.10;100805.28;18309254;32;20112;-60
2023/01/26 14:05:21;;;;;;;0.60;0.60;;;;;;;4.28;54.86;100802.28;18308300;32;20584;-60
2023/01/26 14:15:28;;;;;;;0.80;0.80;;;;;;;4.35;52.61;100807.63;18307990;32;20094;-60
2023/01/26 14:25:31;;;;;;;0.70;0.70;;;;;;;4.83;51.18;100799.53;18308652;32;20101;-59
2023/01/26 14:35:35;;;;;;;0.88;0.88;;;;;;;3.69;54.61;100815.94;18327399;32;20084;-60
2023/01/26 14:45:40;;;;;;;0.60;0.60;;;;;;;4.74;52.98;100801.00;18320966;32;20148;-60
2023/01/26 14:55:45;;;;;;;0.70;0.70;;;;;;;4.98;52.17;100803.37;18306291;32;20240;-60
2023/01/26 15:05:48;;;;;;;0.93;0.70;;;;;;;4.66;52.91;100796.47;18307029;32;20146;-60
2023/01/26 15:16:04;;;;;;;0.70;0.70;;;;;;;5.23;51.69;100799.72;18306268;32;20110;-60
2023/01/26 15:26:09;;;;;;;0.50;0.50;;;;;;;5.99;51.40;100799.84;18305978;32;20116;-60
2023/01/26 15:36:34;;;;;;;0.52;0.52;;;;;;;6.05;51.08;100790.53;18305953;32;20528;-60
2023/01/26 15:46:37;;;;;;;0.82;0.82;;;;;;;6.02;52.25;100793.03;18306473;32;20430;-60
2023/01/26 15:56:43;;;;;;;1.42;1.42;;;;;;;5.93;52.67;100793.66;18306910;32;20153;-61
2023/01/26 16:06:46;;;;;;;4.25;1.83;;;;;;;5.87;53.97;100798.69;18358885;32;20405;-60
2023/01/26 16:16:50;;;;;;;0.80;0.80;;;;;;;5.88;54.53;100804.75;18366834;32;20097;-60
2023/01/26 16:26:54;;;;;;;2.97;2.15;;;;;;;5.80;54.78;100808.03;18368073;32;20101;-60
2023/01/26 16:36:59;;;;;;;5.47;5.18;;;;;;;5.67;55.26;100795.66;18366309;32;20177;-60
2023/01/26 16:47:04;;;;;;;0.98;0.98;;;;;;;5.58;56.09;100798.88;18366108;32;20089;-60
2023/01/26 16:57:09;;;;;;;1.45;1.40;;;;;;;5.57;55.80;100804.03;18365916;32;20464;-60
2023/01/26 17:07:13;;;;;;;0.62;0.62;;;;;;;5.59;56.13;100803.22;18366034;32;20497;-60
2023/01/26 17:17:17;;;;;;;1.40;1.30;;;;;;;5.35;56.96;100794.00;18365616;32;20117;-60
2023/01/26 17:27:21;;;;;;;1.87;1.77;;;;;;;5.43;56.08;100780.38;18367111;32;20409;-60
2023/01/26 17:37:28;;;;;;;2.12;2.03;;;;;;;5.50;55.70;100782.25;18365565;32;20120;-60
2023/01/26 17:47:33;;;;;;;1.00;1.00;;;;;;;5.38;56.56;100778.53;18365047;32;20085;-60
2023/01/26 17:57:37;;;;;;;0.80;0.80;;;;;;;5.39;56.99;100779.44;18364445;32;20116;-60
2023/01/26 18:07:42;;;;;;;3.20;1.05;;;;;;;5.14;58.43;100768.44;18364090;32;20678;-60
2023/01/26 18:17:46;;;;;;;4.78;3.47;;;;;;;5.23;57.71;100762.63;18362245;32;20094;-60
2023/01/26 18:27:49;;;;;;;1.85;1.75;;;;;;;5.21;56.89;100761.69;18366240;32;20146;-60
2023/01/26 18:37:54;;;;;;;1.55;1.00;;;;;;;5.14;56.33;100765.84;18371704;32;20460;-60
2023/01/26 18:47:58;;;;;;;0.77;0.77;;;;;;;5.13;56.61;100770.16;18371116;32;20167;-60
2023/01/26 18:58:03;;;;;;;2.05;1.95;;;;;;;5.06;57.41;100757.00;18370203;32;20127;-60
2023/01/26 19:08:09;;;;;;;0.95;0.95;;;;;;;4.96;57.75;100758.47;18369843;32;20107;-60
2023/01/26 19:18:15;;;;;;;0.77;0.77;;;;;;;4.93;57.71;100758.38;18368993;32;20480;-60
2023/01/26 19:28:18;;;;;;;1.25;1.15;;;;;;;4.83;57.98;100747.78;18370452;32;20123;-60
2023/01/26 19:38:25;;;;;;;0.70;0.70;;;;;;;4.82;57.60;100748.63;18369146;32;20146;-60
2023/01/26 19:48:29;;;;;;;1.25;1.17;;;;;;;4.71;56.97;100748.34;18368592;32;20108;-60
2023/01/26 19:58:34;;;;;;;0.70;0.70;;;;;;;4.61;58.56;100743.75;18330965;32;20108;-59
2023/01/26 20:08:37;;;;;;;2.60;1.17;;;;;;;4.61;58.80;100742.88;18300408;32;20115;-61
2023/01/26 20:18:42;;;;;;;1.87;1.77;;;;;;;4.60;59.34;100733.38;18301485;32;20089;-60
2023/01/26 20:28:46;;;;;;;1.05;1.05;;;;;;;4.57;59.20;100731.56;18303579;32;20107;-60
2023/01/26 20:38:51;;;;;;;1.25;1.15;;;;;;;4.71;58.87;100743.19;18295037;32;20094;-60
2023/01/26 20:48:55;;;;;;;3.37;2.90;;;;;;;4.66;59.25;100738.72;18298429;32;20098;-60
2023/01/26 20:59:00;;;;;;;2.05;1.95;;;;;;;4.52;60.00;100739.19;18302332;32;20113;-60
2023/01/26 21:09:04;;;;;;;4.72;3.75;;;;;;;4.54;60.28;100718.56;18295098;32;20112;-60
2023/01/26 21:19:08;;;;;;;1.05;1.05;;;;;;;4.60;60.28;100723.91;18294645;32;20094;-61
2023/01/26 21:29:14;;;;;;;0.70;0.70;;;;;;;4.64;60.18;100709.31;18296239;32;20116;-60
2023/01/26 21:39:18;;;;;;;0.77;0.77;;;;;;;4.60;60.53;100692.00;18297588;32;20169;-59
2023/01/26 21:49:24;;;;;;;1.45;1.40;;;;;;;4.47;60.38;100668.41;18266922;32;20089;-60
2023/01/26 21:59:30;;;;;;;0.70;0.70;;;;;;;4.48;60.78;100656.34;18298840;32;20447;-60
2023/01/26 22:09:34;;;;;;;0.77;0.77;;;;;;;4.76;59.78;100644.13;18308852;32;20094;-60
2023/01/26 22:19:39;;;;;;;1.52;1.42;;;;;;;4.67;59.32;100642.19;18309945;32;20097;-59
2023/01/26 22:29:42;;;;;;;1.33;1.30;;;;;;;4.65;59.19;100642.16;18308663;32;20074;-60
2023/01/26 22:39:47;;;;;;;1.90;1.37;;;;;;;4.67;59.47;100637.88;18308353;32;20108;-60
2023/01/26 22:49:52;;;;;;;1.10;1.00;;;;;;;4.59;60.13;100644.56;18307984;32;20108;-60
2023/01/26 22:59:57;;;;;;;0.85;0.85;;;;;;;4.77;60.00;100628.66;18307719;32;20438;-60
2023/01/26 23:10:00;;;;;;;0.62;0.62;;;;;;;4.69;59.90;100614.66;18307982;32;20115;-60
2023/01/26 23:20:05;;;;;;;0.50;0.50;;;;;;;4.76;59.18;100608.81;18306653;32;20101;-60
2023/01/26 23:30:10;;;;;;;0.52;0.52;;;;;;;5.01;57.70;100606.81;18307114;32;20108;-60
2023/01/26 23:40:15;;;;;;;1.00;1.00;;;;;;;4.88;57.90;100613.37;18306550;32;20109;-60
2023/01/26 23:50:19;;;;;;;1.17;1.05;;;;;;;5.07;56.47;100601.78;18306195;32;20130;-60
